Time;durP1;ratioP1;P1;durP2;ratioP2;P2;SDS_P1;SDS_P2;PMS_P1;PMS_P2;Temp;Humidity;BMP_temperature;BMP_pressure;BME280_temperature;BME280_humidity;BME280_pressure;Samples;Min_cycle;Max_cycle;Signal;HPM_P1;HPM_P2
2021/10/18 00:00:26;;;;;;;64.03;35.38;;;180.00;2252.80;;;;;;5114149;28;20035;-67
2021/10/18 00:02:51;;;;;;;66.05;36.25;;;180.10;2252.80;;;;;;5113698;28;20031;-68
2021/10/18 00:05:17;;;;;;;66.13;36.65;;;180.10;2252.80;;;;;;5113675;28;20036;-64
2021/10/18 00:07:43;;;;;;;69.97;37.28;;;180.10;2252.80;;;;;;5113817;28;20028;-65
2021/10/18 00:10:10;;;;;;;67.10;36.67;;;180.10;2252.80;;;;;;5113946;28;20483;-67
2021/10/18 00:12:35;;;;;;;68.18;37.58;;;180.10;2252.80;;;;;;5115868;28;20404;-66
2021/10/18 00:15:04;;;;;;;69.95;37.90;;;180.10;2252.80;;;;;;5116228;28;20106;-67
2021/10/18 00:17:29;;;;;;;69.25;37.92;;;180.10;2252.80;;;;;;5117804;28;20031;-67
2021/10/18 00:19:55;;;;;;;61.97;35.33;;;180.10;2252.80;;;;;;5117574;28;20020;-67
2021/10/18 00:22:21;;;;;;;54.90;32.42;;;180.10;2252.80;;;;;;5117686;28;20043;-68
2021/10/18 00:24:46;;;;;;;55.08;30.88;;;180.10;2252.80;;;;;;5117646;28;20381;-67
2021/10/18 00:27:12;;;;;;;47.47;27.60;;;180.00;2252.80;;;;;;5117604;28;20028;-67
2021/10/18 00:29:38;;;;;;;40.50;25.50;;;180.00;2252.80;;;;;;5117552;28;20081;-68
2021/10/18 00:32:04;;;;;;;44.20;25.88;;;180.00;2252.80;;;;;;5117361;28;20022;-68
2021/10/18 00:34:29;;;;;;;46.72;25.50;;;179.90;2252.80;;;;;;5117295;28;20422;-62
2021/10/18 00:36:55;;;;;;;42.58;24.60;;;179.90;2252.80;;;;;;5117289;28;20024;-68
2021/10/18 00:39:21;;;;;;;49.20;27.58;;;179.90;2252.80;;;;;;5117416;28;20110;-67
2021/10/18 00:41:46;;;;;;;57.95;31.27;;;179.90;2252.80;;;;;;5116864;28;20027;-64
2021/10/18 00:44:12;;;;;;;52.22;29.45;;;179.90;2252.80;;;;;;5117274;28;20087;-67
2021/10/18 00:46:38;;;;;;;50.63;28.75;;;179.90;2252.80;;;;;;5117056;28;20027;-68
2021/10/18 00:49:04;;;;;;;53.88;31.20;;;179.90;2252.80;;;;;;5116417;28;20089;-62
2021/10/18 00:51:30;;;;;;;61.15;33.60;;;179.90;2252.80;;;;;;5115153;28;20752;-67
2021/10/18 00:53:59;;;;;;;66.13;34.40;;;179.90;2252.80;;;;;;5115675;28;20049;-59
2021/10/18 00:56:27;;;;;;;67.55;34.80;;;179.90;2252.80;;;;;;5115333;28;20484;-62
2021/10/18 00:58:55;;;;;;;68.43;36.50;;;179.90;2252.80;;;;;;5115352;28;20426;-66
2021/10/18 01:01:21;;;;;;;67.47;35.63;;;179.90;2252.80;;;;;;5112820;28;20034;-62
2021/10/18 01:03:47;;;;;;;64.30;34.70;;;179.90;2252.80;;;;;;5115523;28;20012;-62
2021/10/18 01:06:13;;;;;;;63.22;34.13;;;179.90;2252.80;;;;;;5115402;28;20085;-67
2021/10/18 01:08:40;;;;;;;61.47;34.08;;;179.90;2252.80;;;;;;5115191;27;20044;-67
2021/10/18 01:11:06;;;;;;;58.35;33.20;;;179.80;2252.80;;;;;;5115261;28;20020;-67
2021/10/18 01:13:32;;;;;;;65.22;33.03;;;179.80;2252.80;;;;;;5115070;28;20027;-67
2021/10/18 01:16:01;;;;;;;63.90;34.25;;;179.80;2252.80;;;;;;5115206;28;20024;-65
2021/10/18 01:18:27;;;;;;;61.05;32.00;;;179.80;2252.80;;;;;;5115359;28;20436;-67
2021/10/18 01:20:53;;;;;;;52.30;27.40;;;179.80;2252.80;;;;;;5115259;28;20076;-67
2021/10/18 01:23:19;;;;;;;45.90;24.50;;;179.80;2252.80;;;;;;5114396;28;20024;-63
2021/10/18 01:25:44;;;;;;;41.60;22.30;;;179.80;2252.80;;;;;;5115321;28;20031;-67
2021/10/18 01:28:10;;;;;;;36.63;19.60;;;179.80;2252.80;;;;;;5116322;28;20024;-63
2021/10/18 01:30:36;;;;;;;31.58;18.27;;;179.80;2252.80;;;;;;5116417;28;20032;-64
2021/10/18 01:33:02;;;;;;;29.45;16.63;;;179.80;2252.80;;;;;;5116296;28;20461;-67
2021/10/18 01:35:28;;;;;;;25.90;14.65;;;179.80;2252.80;;;;;;5116168;28;20380;-68
2021/10/18 01:37:53;;;;;;;24.05;15.48;;;179.80;2252.80;;;;;;5116236;28;20035;-68
2021/10/18 01:40:21;;;;;;;30.63;16.08;;;179.70;2252.80;;;;;;5116340;28;20039;-66
2021/10/18 01:42:48;;;;;;;31.75;18.33;;;179.70;2252.80;;;;;;5116286;28;20023;-67
2021/10/18 01:45:15;;;;;;;33.13;17.13;;;179.70;2252.80;;;;;;5116126;28;20046;-66
2021/10/18 01:47:41;;;;;;;30.85;16.88;;;179.70;2252.80;;;;;;5115078;28;20023;-66
2021/10/18 01:50:15;;;;;;;29.70;16.60;;;179.70;2252.80;;;;;;5115757;28;20103;-68
2021/10/18 01:52:44;;;;;;;29.08;16.25;;;179.70;2252.80;;;;;;5115621;28;20362;-67
2021/10/18 01:55:11;;;;;;;24.60;14.35;;;179.70;2252.80;;;;;;5115760;28;20102;-68
2021/10/18 01:57:37;;;;;;;22.15;13.25;;;179.60;2252.80;;;;;;5115815;28;20023;-67
2021/10/18 02:00:05;;;;;;;27.42;16.40;;;179.60;2252.80;;;;;;5115773;28;20020;-66
2021/10/18 02:02:30;;;;;;;29.85;17.05;;;179.60;2252.80;;;;;;5115730;28;20020;-68
2021/10/18 02:04:56;;;;;;;37.40;19.17;;;179.60;2252.80;;;;;;5115423;28;20036;-67
2021/10/18 02:07:22;;;;;;;37.50;18.90;;;179.50;2252.80;;;;;;5115246;27;20054;-65
2021/10/18 02:09:48;;;;;;;38.75;20.42;;;179.40;2252.80;;;;;;5115171;28;20397;-64
2021/10/18 02:12:13;;;;;;;41.72;21.05;;;179.40;2252.80;;;;;;5115388;28;20385;-68
2021/10/18 02:14:39;;;;;;;33.97;18.35;;;179.30;2252.80;;;;;;5114172;28;20027;-61
2021/10/18 02:17:05;;;;;;;33.42;17.58;;;179.30;2252.80;;;;;;5115347;28;20100;-67
2021/10/18 02:19:30;;;;;;;32.92;17.00;;;179.30;2252.80;;;;;;5115348;28;20028;-67
2021/10/18 02:21:56;;;;;;;29.92;16.85;;;179.30;2252.80;;;;;;5115372;28;20019;-61
2021/10/18 02:24:22;;;;;;;31.15;16.60;;;179.30;2252.80;;;;;;5115246;28;20081;-68
2021/10/18 02:26:47;;;;;;;28.15;16.05;;;179.30;2252.80;;;;;;5115345;28;20024;-67
2021/10/18 02:29:13;;;;;;;28.30;17.27;;;179.30;2252.80;;;;;;5115150;28;20031;-68
2021/10/18 02:31:39;;;;;;;31.50;18.40;;;179.30;2252.80;;;;;;5115096;28;20058;-67
2021/10/18 02:34:04;;;;;;;32.70;17.45;;;179.30;2252.80;;;;;;5115237;28;20051;-66
2021/10/18 02:36:31;;;;;;;33.60;18.70;;;179.30;2252.80;;;;;;5114677;28;20409;-62
2021/10/18 02:38:57;;;;;;;35.67;18.05;;;179.30;2252.80;;;;;;5115054;28;20104;-59
2021/10/18 02:41:23;;;;;;;35.28;19.35;;;179.30;2252.80;;;;;;5113528;28;20103;-68
2021/10/18 02:43:49;;;;;;;37.75;20.45;;;179.20;2252.80;;;;;;5114929;28;20027;-65
2021/10/18 02:46:14;;;;;;;34.53;20.38;;;179.20;2252.80;;;;;;5114825;28;20036;-68
2021/10/18 02:48:40;;;;;;;32.70;18.13;;;179.20;2252.80;;;;;;5114995;28;20058;-69
2021/10/18 02:51:06;;;;;;;27.08;14.23;;;179.20;2252.80;;;;;;5114172;28;20110;-68
2021/10/18 02:53:32;;;;;;;24.58;13.65;;;179.20;2252.80;;;;;;5114652;28;20020;-68
2021/10/18 02:55:58;;;;;;;21.52;11.57;;;179.20;2252.80;;;;;;5114833;28;20555;-68
2021/10/18 02:58:23;;;;;;;22.63;11.25;;;179.20;2252.80;;;;;;5114687;28;20465;-68
2021/10/18 03:00:49;;;;;;;17.13;10.45;;;179.20;2252.80;;;;;;5112946;28;20401;-68
2021/10/18 03:03:15;;;;;;;20.25;9.85;;;179.20;2252.80;;;;;;5114733;28;20020;-68
2021/10/18 03:05:40;;;;;;;17.38;8.85;;;179.20;2252.80;;;;;;5114439;28;20073;-68
2021/10/18 03:08:06;;;;;;;16.55;9.30;;;179.20;2252.80;;;;;;5114450;28;20043;-68
2021/10/18 03:10:32;;;;;;;18.40;9.30;;;179.20;2252.80;;;;;;5114275;28;20043;-69
2021/10/18 03:12:58;;;;;;;26.25;12.40;;;179.20;2252.80;;;;;;5112710;28;20042;-68
2021/10/18 03:15:23;;;;;;;33.97;16.23;;;179.20;2252.80;;;;;;5114396;28;20106;-68
2021/10/18 03:17:51;;;;;;;45.38;21.55;;;179.20;2252.80;;;;;;5114169;28;20080;-68
2021/10/18 03:20:17;;;;;;;35.33;13.13;;;179.20;2252.80;;;;;;5113990;28;20582;-68
2021/10/18 03:22:42;;;;;;;26.67;14.77;;;179.20;2252.80;;;;;;5113571;28;20028;-68
2021/10/18 03:25:09;;;;;;;26.38;13.23;;;179.20;2252.80;;;;;;5114276;28;20100;-68
2021/10/18 03:27:35;;;;;;;23.95;12.57;;;179.30;2252.80;;;;;;5114138;28;20369;-67
2021/10/18 03:30:01;;;;;;;24.08;13.23;;;179.30;2252.80;;;;;;5114191;28;20081;-68
2021/10/18 03:32:27;;;;;;;43.13;22.20;;;179.20;2252.80;;;;;;5114033;28;20020;-68
2021/10/18 03:34:52;;;;;;;37.17;19.65;;;179.20;2252.80;;;;;;5114096;28;20028;-67
2021/10/18 03:37:18;;;;;;;34.17;17.35;;;179.20;2252.80;;;;;;5114216;28;20024;-68
2021/10/18 03:39:44;;;;;;;34.55;17.73;;;179.20;2252.80;;;;;;5113917;28;20072;-67
2021/10/18 03:42:09;;;;;;;30.25;15.90;;;154.50;2252.80;;;;;;5113975;28;20035;-68
2021/10/18 03:44:35;;;;;;;25.58;13.68;;;154.50;2252.80;;;;;;5113778;28;20042;-68
2021/10/18 03:47:01;;;;;;;24.02;12.98;;;154.50;2252.80;;;;;;5115376;28;20048;-68
2021/10/18 03:49:27;;;;;;;22.15;11.77;;;154.40;2252.80;;;;;;5118383;28;20031;-67
2021/10/18 03:51:53;;;;;;;23.38;10.93;;;154.40;2252.80;;;;;;5118057;28;20059;-67
2021/10/18 03:54:18;;;;;;;21.42;10.88;;;154.40;2252.80;;;;;;5117782;28;20102;-66
2021/10/18 03:56:44;;;;;;;19.30;10.90;;;154.40;2252.80;;;;;;5117996;28;20036;-67
2021/10/18 03:59:10;;;;;;;20.48;10.23;;;154.30;2252.80;;;;;;5118269;28;20020;-66
2021/10/18 04:01:36;;;;;;;22.00;10.30;;;154.20;2252.80;;;;;;5118087;28;20108;-68
2021/10/18 04:04:01;;;;;;;22.27;10.10;;;154.20;2252.80;;;;;;5118137;28;20102;-66
2021/10/18 04:06:27;;;;;;;20.60;10.35;;;154.10;2252.80;;;;;;5118156;28;20473;-66
2021/10/18 04:08:54;;;;;;;19.20;10.25;;;154.00;2252.80;;;;;;5117732;27;20130;-66
2021/10/18 04:11:20;;;;;;;22.17;10.15;;;154.00;2252.80;;;;;;5117765;28;20024;-67
2021/10/18 04:13:46;;;;;;;21.05;10.23;;;154.00;2252.80;;;;;;5117380;28;20365;-66
2021/10/18 04:16:12;;;;;;;20.83;10.80;;;153.90;2252.80;;;;;;5117636;28;20024;-67
2021/10/18 04:18:38;;;;;;;22.30;10.45;;;153.90;2252.80;;;;;;5117696;28;20027;-67
2021/10/18 04:21:05;;;;;;;20.17;10.18;;;153.90;2252.80;;;;;;5117669;28;20026;-67
2021/10/18 04:23:32;;;;;;;20.40;10.43;;;153.80;2252.80;;;;;;5115841;28;20096;-66
2021/10/18 04:25:58;;;;;;;19.75;9.77;;;153.80;2252.80;;;;;;5117404;28;20035;-68
2021/10/18 04:28:24;;;;;;;19.10;9.65;;;153.70;2252.80;;;;;;5117475;28;20020;-67
2021/10/18 04:30:50;;;;;;;20.88;10.43;;;153.70;2252.80;;;;;;5117665;28;20155;-67
2021/10/18 04:33:16;;;;;;;22.25;10.73;;;153.70;2252.80;;;;;;5115904;28;20035;-68
2021/10/18 04:35:41;;;;;;;26.58;11.68;;;153.70;2252.80;;;;;;5115520;28;20084;-65
2021/10/18 04:38:07;;;;;;;22.58;11.32;;;153.70;2252.80;;;;;;5117195;28;20485;-67
2021/10/18 04:40:33;;;;;;;22.27;11.57;;;153.70;2252.80;;;;;;5115852;28;20031;-68
2021/10/18 04:42:59;;;;;;;24.15;12.32;;;153.70;2252.80;;;;;;5115091;28;20035;-64
2021/10/18 04:45:25;;;;;;;25.08;13.15;;;153.70;2252.80;;;;;;5115414;28;20032;-67
2021/10/18 04:47:51;;;;;;;24.80;11.80;;;153.60;2252.80;;;;;;5117257;28;20024;-65
2021/10/18 04:50:21;;;;;;;30.23;13.32;;;153.60;2252.80;;;;;;5117113;28;20049;-67
2021/10/18 04:52:48;;;;;;;26.55;12.75;;;153.70;2252.80;;;;;;5115711;28;20046;-67
2021/10/18 04:55:14;;;;;;;25.05;12.70;;;153.60;2252.80;;;;;;5116953;28;20024;-68
2021/10/18 04:57:53;;;;;;;25.08;13.02;;;153.60;2252.80;;;;;;5116810;28;20031;-67
2021/10/18 05:00:19;;;;;;;26.52;13.98;;;153.60;2252.80;;;;;;5116112;28;20465;-64
2021/10/18 05:02:45;;;;;;;33.90;14.95;;;153.60;2252.80;;;;;;5116971;28;20076;-68
2021/10/18 05:05:11;;;;;;;25.02;13.93;;;153.60;2252.80;;;;;;5116700;27;20036;-66
2021/10/18 05:07:36;;;;;;;27.90;13.38;;;153.70;2252.80;;;;;;5116716;28;20028;-68
2021/10/18 05:10:03;;;;;;;31.90;14.68;;;153.70;2252.80;;;;;;5116273;28;20024;-64
2021/10/18 05:12:28;;;;;;;34.75;15.35;;;153.60;2252.80;;;;;;5115840;28;20054;-68
2021/10/18 05:14:54;;;;;;;31.70;16.23;;;153.60;2252.80;;;;;;5114731;28;20481;-67
2021/10/18 05:17:20;;;;;;;36.30;16.98;;;153.70;2252.80;;;;;;5116158;28;20052;-67
2021/10/18 05:19:45;;;;;;;46.78;20.15;;;153.70;2252.80;;;;;;5115993;28;20028;-65
2021/10/18 05:22:11;;;;;;;44.22;20.55;;;153.70;2252.80;;;;;;5115815;28;20058;-67
2021/10/18 05:24:37;;;;;;;54.03;23.83;;;153.70;2252.80;;;;;;5116064;28;20039;-68
2021/10/18 05:27:02;;;;;;;40.45;18.83;;;153.70;2252.80;;;;;;5116811;28;20084;-67
2021/10/18 05:29:28;;;;;;;32.90;17.20;;;153.90;2252.80;;;;;;5116611;28;20157;-65
2021/10/18 05:31:54;;;;;;;28.98;14.65;;;153.90;2252.80;;;;;;5116452;28;20023;-67
2021/10/18 05:34:19;;;;;;;30.85;14.43;;;154.00;2252.80;;;;;;5116232;28;20407;-68
2021/10/18 05:36:45;;;;;;;33.90;13.80;;;154.10;2252.80;;;;;;5114687;28;20023;-67
2021/10/18 05:39:11;;;;;;;37.58;16.33;;;154.20;2252.80;;;;;;5114794;28;20577;-60
2021/10/18 05:41:37;;;;;;;30.88;15.70;;;154.40;2252.80;;;;;;5113344;28;20118;-68
2021/10/18 05:44:04;;;;;;;29.90;14.55;;;154.40;2252.80;;;;;;5114625;28;20462;-68
2021/10/18 05:46:30;;;;;;;31.25;15.90;;;179.20;2252.80;;;;;;5109984;28;20038;-66
2021/10/18 05:48:55;;;;;;;32.58;14.30;;;179.30;2252.80;;;;;;5113036;28;20028;-66
2021/10/18 05:51:21;;;;;;;29.13;12.75;;;179.60;2252.80;;;;;;5114729;28;20019;-67
2021/10/18 05:53:47;;;;;;;27.40;14.27;;;204.80;2252.80;;;;;;5114478;28;20461;-60
2021/10/18 05:56:12;;;;;;;35.45;17.92;;;205.50;2252.80;;;;;;5114763;28;20100;-67
2021/10/18 05:58:38;;;;;;;35.85;17.90;;;230.60;2252.80;;;;;;5114743;28;20023;-67
2021/10/18 06:01:04;;;;;;;77.07;44.28;;;256.00;2252.80;;;;;;5114605;28;20150;-69
2021/10/18 06:03:31;;;;;;;48.83;25.67;;;281.60;2278.40;;;;;;5095350;28;20503;-67
2021/10/18 06:05:57;;;;;;;64.43;30.48;;;282.30;2278.40;;;;;;5095115;28;20121;-67
2021/10/18 06:08:22;;;;;;;57.63;29.42;;;307.90;2304.00;;;;;;5095075;28;20436;-68
2021/10/18 06:10:48;;;;;;;45.08;20.90;;;333.70;2252.80;;;;;;5094939;28;20056;-61
2021/10/18 06:13:14;;;;;;;29.50;16.92;;;359.00;2124.80;;;;;;5095562;28;20504;-68
2021/10/18 06:15:40;;;;;;;28.33;15.38;;;384.50;1996.80;;;;;;5113356;28;20031;-69
2021/10/18 06:18:11;;;;;;;31.55;18.40;;;409.80;1894.40;;;;;;5111949;28;21060;-68
2021/10/18 06:20:45;;;;;;;31.08;17.98;;;410.30;1817.60;;;;;;5113287;28;20040;-65
2021/10/18 06:23:12;;;;;;;28.17;18.17;;;435.50;1740.80;;;;;;5112657;28;20043;-61
2021/10/18 06:25:39;;;;;;;41.75;26.95;;;436.00;1689.60;;;;;;5113056;28;20035;-61
2021/10/18 06:28:05;;;;;;;55.17;33.13;;;461.00;1638.40;;;;;;5112774;28;20023;-62
2021/10/18 06:30:31;;;;;;;49.42;29.25;;;461.30;1587.20;;;;;;5113076;28;20391;-69
2021/10/18 06:32:57;;;;;;;45.78;26.13;;;461.30;1612.80;;;;;;5107503;28;20051;-62
2021/10/18 06:35:23;;;;;;;46.65;29.38;;;461.00;1638.40;;;;;;5111122;28;20068;-64
2021/10/18 06:37:48;;;;;;;51.35;33.03;;;436.10;1638.40;;;;;;5112306;28;20027;-60
2021/10/18 06:40:15;;;;;;;48.30;32.08;;;435.50;1689.60;;;;;;5112324;28;20043;-69
2021/10/18 06:42:41;;;;;;;59.85;36.95;;;410.50;1766.40;;;;;;5111520;28;20062;-61
2021/10/18 06:45:08;;;;;;;66.75;42.35;;;410.10;1792.00;;;;;;5111903;28;20195;-61
2021/10/18 06:47:34;;;;;;;80.93;48.83;;;384.90;1843.20;;;;;;5112855;28;20019;-63
2021/10/18 06:49:59;;;;;;;89.28;57.92;;;384.50;1894.40;;;;;;5112180;28;20039;-61
2021/10/18 06:52:31;;;;;;;90.95;58.60;;;384.00;1971.20;;;;;;5110870;28;20080;-61
2021/10/18 06:54:57;;;;;;;89.68;56.00;;;359.20;2022.40;;;;;;5111226;28;20028;-61
2021/10/18 06:57:23;;;;;;;61.58;41.28;;;359.10;2073.60;;;;;;5112844;28;20412;-62
2021/10/18 06:59:48;;;;;;;51.20;34.08;;;358.90;2150.40;;;;;;5112101;28;20063;-61
2021/10/18 07:02:14;;;;;;;45.20;30.13;;;358.90;2201.60;;;;;;5110965;28;20059;-62
2021/10/18 07:04:40;;;;;;;30.38;20.23;;;358.70;2252.80;;;;;;5112364;28;20043;-70
2021/10/18 07:07:06;;;;;;;29.52;20.95;;;358.70;2278.40;;;;;;5111728;28;20023;-62
2021/10/18 07:09:32;;;;;;;39.13;24.05;;;358.70;2252.80;;;;;;5111384;28;20046;-63
2021/10/18 07:11:58;;;;;;;30.27;20.25;;;358.70;2304.00;;;;;;5111734;28;20039;-70
2021/10/18 07:14:24;;;;;;;34.35;19.45;;;358.70;2278.40;;;;;;5112544;28;20035;-61
2021/10/18 07:16:51;;;;;;;33.88;18.05;;;358.90;2252.80;;;;;;5111612;28;20051;-61
2021/10/18 07:19:17;;;;;;;22.65;16.98;;;358.90;2252.80;;;;;;5112284;28;20473;-62
2021/10/18 07:21:44;;;;;;;21.98;14.18;;;359.00;2252.80;;;;;;5111727;28;20024;-61
2021/10/18 07:24:09;;;;;;;22.83;13.80;;;359.00;2176.00;;;;;;5111140;28;20028;-62
2021/10/18 07:26:35;;;;;;;21.92;15.18;;;359.00;2176.00;;;;;;5111977;28;20032;-64
2021/10/18 07:29:01;;;;;;;21.85;15.85;;;359.20;2150.40;;;;;;5111322;28;20030;-62
2021/10/18 07:31:27;;;;;;;21.77;15.45;;;384.90;2048.00;;;;;;5111592;28;20396;-61
2021/10/18 07:33:57;;;;;;;26.85;17.80;;;435.20;1920.00;;;;;;5107265;28;20020;-62
2021/10/18 07:36:25;;;;;;;24.52;16.80;;;486.70;1792.00;;;;;;5111838;28;20031;-61
2021/10/18 07:38:51;;;;;;;23.70;17.23;;;537.80;1587.20;;;;;;5111519;28;20101;-62
2021/10/18 07:41:19;;;;;;;25.60;18.23;;;564.00;1459.20;;;;;;5111573;28;20430;-70
2021/10/18 07:43:45;;;;;;;23.83;17.35;;;614.80;1305.60;;;;;;5112368;28;20395;-75
2021/10/18 07:46:11;;;;;;;22.73;16.85;;;640.40;1177.60;;;;;;5111116;28;20050;-75
2021/10/18 07:48:36;;;;;;;20.88;16.70;;;691.20;1075.20;;;;;;5109514;28;20024;-69
2021/10/18 07:51:02;;;;;;;20.45;16.63;;;691.20;1049.60;;;;;;5109446;28;20036;-71
2021/10/18 07:53:28;;;;;;;24.55;17.02;;;691.80;998.40;;;;;;5110988;28;20473;-71
2021/10/18 07:55:54;;;;;;;30.75;19.90;;;691.70;972.80;;;;;;5110287;28;20042;-67
2021/10/18 07:58:23;;;;;;;33.80;21.20;;;692.10;947.20;;;;;;5112350;28;20024;-69
2021/10/18 08:00:49;;;;;;;23.58;17.38;;;717.00;972.80;;;;;;5111370;28;20409;-69
2021/10/18 08:03:15;;;;;;;31.75;19.70;;;742.40;947.20;;;;;;5111474;28;20103;-71
2021/10/18 08:05:41;;;;;;;22.70;15.68;;;743.20;896.00;;;;;;5111757;28;20123;-68
2021/10/18 08:08:10;;;;;;;17.15;11.65;;;768.60;819.20;;;;;;5111047;28;20132;-65
2021/10/18 08:10:36;;;;;;;14.80;11.27;;;794.00;844.80;;;;;;5111440;28;20408;-65
2021/10/18 08:13:02;;;;;;;16.15;11.77;;;794.40;819.20;;;;;;5110715;28;20090;-66
2021/10/18 08:15:32;;;;;;;20.40;14.10;;;844.90;768.00;;;;;;5111550;28;20389;-67
2021/10/18 08:17:58;;;;;;;12.88;9.68;;;845.60;716.80;;;;;;5109823;28;20031;-67
2021/10/18 08:20:25;;;;;;;10.45;8.10;;;871.10;665.60;;;;;;5111703;28;20070;-65
2021/10/18 08:22:51;;;;;;;10.77;7.13;;;896.00;614.40;;;;;;5110623;28;20493;-63
2021/10/18 08:25:18;;;;;;;10.82;7.65;;;896.80;614.40;;;;;;5110398;28;20047;-65
2021/10/18 08:27:44;;;;;;;9.18;6.38;;;896.80;588.80;;;;;;5111678;28;20817;-63
2021/10/18 08:30:10;;;;;;;9.35;7.38;;;896.80;588.80;;;;;;5107028;28;20036;-61
2021/10/18 08:32:36;;;;;;;8.25;7.10;;;921.80;588.80;;;;;;5086686;28;20017;-61
2021/10/18 08:35:03;;;;;;;10.38;6.55;;;922.20;563.20;;;;;;5103317;28;20568;-64
2021/10/18 08:40:13;;;;;;;9.73;6.40;;;921.70;614.40;;;;;;5100406;28;20042;-65
2021/10/18 08:42:56;;;;;;;8.02;6.38;;;922.40;563.20;;;;;;5093903;28;20073;-67
2021/10/18 08:45:22;;;;;;;7.20;5.53;;;922.50;563.20;;;;;;5105835;28;20039;-62
2021/10/18 08:47:49;;;;;;;8.57;5.80;;;896.90;588.80;;;;;;5108856;28;20482;-61
2021/10/18 08:50:15;;;;;;;7.45;5.85;;;922.30;588.80;;;;;;5114876;27;20473;-65
2021/10/18 08:52:42;;;;;;;7.25;5.82;;;948.00;537.60;;;;;;5114591;28;20024;-60
2021/10/18 08:55:09;;;;;;;7.55;5.20;;;948.10;512.00;;;;;;5113442;28;20243;-66
2021/10/18 08:57:35;;;;;;;8.43;5.78;;;948.00;537.60;;;;;;5114584;28;20031;-62
2021/10/18 09:00:03;;;;;;;6.43;4.75;;;947.90;537.60;;;;;;5113258;28;20034;-64
2021/10/18 09:02:37;;;;;;;6.53;5.07;;;947.90;512.00;;;;;;5114994;28;20027;-66
2021/10/18 09:05:07;;;;;;;6.70;4.78;;;947.70;537.60;;;;;;5100169;28;20028;-67
2021/10/18 09:07:37;;;;;;;5.43;4.10;;;972.80;537.60;;;;;;5092420;28;20027;-67
2021/10/18 09:10:14;;;;;;;6.30;4.65;;;922.40;537.60;;;;;;5093245;28;20028;-67
2021/10/18 09:12:41;;;;;;;4.88;3.90;;;947.50;537.60;;;;;;5094332;28;20039;-66
2021/10/18 09:15:23;;;;;;;7.40;4.70;;;947.70;512.00;;;;;;5093512;28;20161;-71
2021/10/18 09:17:59;;;;;;;4.43;3.13;;;947.70;512.00;;;;;;5093251;28;20107;-64
2021/10/18 09:20:36;;;;;;;5.32;3.15;;;947.50;512.00;;;;;;5092783;28;20032;-68
2021/10/18 09:23:29;;;;;;;5.05;3.40;;;948.00;460.80;;;;;;5092970;28;20093;-65
2021/10/18 09:26:00;;;;;;;4.75;3.70;;;973.00;512.00;;;;;;5093076;28;20048;-70
2021/10/18 09:28:27;;;;;;;5.40;4.20;;;948.10;486.40;;;;;;5092115;28;20028;-67
2021/10/18 09:30:53;;;;;;;;;;;948.00;512.00;;;;;;5091669;28;20070;-65
2021/10/18 09:33:35;;;;;;;;;;;972.80;512.00;;;;;;5089455;28;20399;-70
2021/10/18 09:36:03;;;;;;;;;;;973.20;512.00;;;;;;5093255;28;19911;-69
2021/10/18 09:38:29;;;;;;;6.85;4.60;;;973.10;512.00;;;;;;5103832;28;19904;-70
2021/10/18 09:41:00;;;;;;;6.03;4.45;;;973.60;486.40;;;;;;5112946;27;20504;-69
2021/10/18 09:43:43;;;;;;;9.52;4.97;;;973.00;512.00;;;;;;5113558;28;20035;-66
2021/10/18 10:51:27;;;;;;;5.70;4.20;;;871.00;588.80;;;;;;5049141;28;20156;-70
2021/10/18 10:53:59;;;;;;;5.40;4.18;;;870.40;640.00;;;;;;5047559;28;20066;-70
2021/10/18 10:56:27;;;;;;;7.03;4.28;;;844.90;665.60;;;;;;5048924;28;20037;-65
2021/10/18 10:59:21;;;;;;;4.82;3.83;;;845.00;691.20;;;;;;5048650;28;20032;-70
2021/10/18 11:01:54;;;;;;;4.93;3.70;;;845.20;691.20;;;;;;5066557;28;20511;-67
2021/10/18 11:04:33;;;;;;;7.07;3.70;;;819.70;665.60;;;;;;5094016;28;20026;-70
2021/10/18 11:07:04;;;;;;;4.85;3.88;;;844.80;665.60;;;;;;5111000;28;20109;-70
2021/10/18 11:09:53;;;;;;;5.30;3.25;;;845.00;665.60;;;;;;5112330;28;20058;-61
2021/10/18 11:12:38;;;;;;;4.32;2.88;;;845.10;640.00;;;;;;5013270;28;20045;-62
2021/10/18 11:15:13;;;;;;;5.15;3.38;;;819.80;640.00;;;;;;5028530;28;20037;-63
2021/10/18 11:17:48;;;;;;;7.90;4.55;;;819.20;691.20;;;;;;5029428;28;20037;-60
2021/10/18 11:20:23;;;;;;;5.00;3.50;;;794.40;691.20;;;;;;5029562;28;20025;-66
2021/10/18 11:22:52;;;;;;;6.30;3.53;;;819.90;665.60;;;;;;5027580;28;20307;-61
2021/10/18 11:25:26;;;;;;;5.85;3.80;;;844.80;665.60;;;;;;5029652;28;20033;-61
2021/10/18 11:27:58;;;;;;;5.40;3.70;;;844.80;665.60;;;;;;5028626;28;20531;-61
2021/10/18 11:30:26;;;;;;;5.78;3.33;;;845.30;665.60;;;;;;5013024;28;20041;-65
2021/10/18 11:33:00;;;;;;;5.03;2.90;;;845.10;640.00;;;;;;5023802;28;20033;-60
2021/10/18 11:35:28;;;;;;;7.28;3.42;;;845.60;665.60;;;;;;5029791;28;20061;-63
2021/10/18 11:38:03;;;;;;;4.70;3.25;;;845.60;640.00;;;;;;5028247;28;20439;-64
2021/10/18 11:40:32;;;;;;;5.57;3.88;;;870.40;640.00;;;;;;5029459;28;20136;-63
2021/10/18 11:43:11;;;;;;;5.40;3.42;;;870.70;614.40;;;;;;5027800;28;20033;-63
2021/10/18 11:45:42;;;;;;;5.95;3.33;;;871.20;563.20;;;;;;5029725;28;20153;-63
2021/10/18 11:48:07;;;;;;;5.82;3.85;;;871.00;588.80;;;;;;5013345;28;20161;-67
2021/10/18 11:50:36;;;;;;;5.85;3.90;;;870.70;588.80;;;;;;5111799;28;20423;-63
2021/10/18 11:53:12;;;;;;;6.05;3.63;;;871.10;588.80;;;;;;5109448;28;20028;-63
2021/10/18 11:55:40;;;;;;;10.70;4.03;;;871.30;563.20;;;;;;5111487;28;20054;-63
2021/10/18 11:58:08;;;;;;;7.93;4.82;;;871.00;588.80;;;;;;5111030;28;20035;-70
2021/10/18 12:00:41;;;;;;;5.18;3.53;;;870.80;588.80;;;;;;5112311;28;20047;-67
2021/10/18 12:03:17;;;;;;;9.00;7.30;;;870.50;614.40;;;;;;5111047;28;20027;-65
2021/10/18 12:05:52;;;;;;;10.40;7.68;;;845.40;640.00;;;;;;5112178;28;20039;-70
2021/10/18 12:08:20;;;;;;;24.00;17.25;;;820.00;665.60;;;;;;5112564;28;20069;-68
2021/10/18 12:10:48;;;;;;;11.50;6.60;;;819.60;665.60;;;;;;5115792;27;20045;-64
2021/10/18 12:13:14;;;;;;;7.40;5.13;;;794.40;716.80;;;;;;5115672;28;20115;-68
2021/10/18 12:15:45;;;;;;;;;;;794.20;716.80;;;;;;5112601;28;20059;-69
2021/10/18 12:18:12;;;;;;;9.73;5.35;;;793.70;716.80;;;;;;5115059;28;20002;-62
2021/10/18 12:20:43;;;;;;;6.75;4.20;;;793.70;716.80;;;;;;5116219;28;20046;-71
2021/10/18 12:23:18;;;;;;;6.65;4.20;;;768.10;716.80;;;;;;5114185;28;20118;-65
2021/10/18 12:25:56;;;;;;;5.80;4.47;;;742.80;768.00;;;;;;5115448;28;20118;-65
2021/10/18 12:28:39;;;;;;;5.95;3.90;;;742.80;793.60;;;;;;5115539;28;20384;-71
2021/10/18 12:31:07;;;;;;;6.10;4.47;;;742.90;793.60;;;;;;5114450;28;20019;-67
2021/10/18 12:33:39;;;;;;;6.35;4.45;;;743.00;793.60;;;;;;5110768;28;20047;-71
2021/10/18 12:36:06;;;;;;;6.90;4.55;;;742.70;819.20;;;;;;5114294;28;20047;-68
2021/10/18 12:38:40;;;;;;;5.25;3.70;;;717.60;768.00;;;;;;5115167;28;20114;-69
2021/10/18 12:41:17;;;;;;;12.65;6.40;;;716.90;793.60;;;;;;5114346;28;20027;-66
2021/10/18 12:43:44;;;;;;;7.20;3.65;;;691.60;819.20;;;;;;5113754;28;20051;-62
2021/10/18 12:46:21;;;;;;;11.65;4.93;;;691.30;844.80;;;;;;5111960;28;20046;-71
2021/10/18 12:48:59;;;;;;;5.82;3.67;;;691.30;844.80;;;;;;5114780;28;20024;-60
2021/10/18 12:51:35;;;;;;;7.68;4.28;;;691.30;844.80;;;;;;5114041;28;20034;-62
2021/10/18 12:54:39;;;;;;;10.13;5.07;;;666.50;844.80;;;;;;5113064;28;20115;-62
2021/10/18 12:57:10;;;;;;;6.68;4.10;;;640.80;896.00;;;;;;5049900;28;20045;-61
2021/10/18 12:59:57;;;;;;;7.32;4.30;;;640.50;896.00;;;;;;5034944;28;20037;-62
2021/10/18 13:02:24;;;;;;;7.47;4.55;;;640.80;870.40;;;;;;5048813;28;20029;-72
2021/10/18 13:05:15;;;;;;;6.25;4.40;;;640.90;896.00;;;;;;5050166;28;20044;-64
2021/10/18 13:07:44;;;;;;;6.97;4.60;;;640.90;896.00;;;;;;5047706;28;20386;-61
2021/10/18 13:10:14;;;;;;;7.63;5.10;;;640.90;896.00;;;;;;5050217;28;20052;-64
2021/10/18 13:12:41;;;;;;;7.97;4.82;;;665.70;921.60;;;;;;5051843;28;20044;-61
2021/10/18 13:15:09;;;;;;;6.43;4.28;;;665.90;921.60;;;;;;5051126;28;20127;-62
2021/10/18 13:17:35;;;;;;;5.40;4.45;;;665.80;921.60;;;;;;5051710;28;20053;-62
2021/10/18 13:20:02;;;;;;;6.50;4.70;;;640.90;896.00;;;;;;5049733;28;20033;-63